Time;durP1;ratioP1;P1;durP2;ratioP2;P2;SDS_P1;SDS_P2;PMS_P1;PMS_P2;Temp;Humidity;BMP_temperature;BMP_pressure;BME280_temperature;BME280_humidity;BME280_pressure;Samples;Min_cycle;Max_cycle;Signal;HPM_P1;HPM_P2
2023/10/21 00:01:28;;;;;;;33.23;23.07;;;8.60;99.90;;;7.58;100.00;98145.50;5056406;28;20719;-69
2023/10/21 00:03:57;;;;;;;60.40;27.10;;;8.60;99.90;;;7.60;100.00;98162.06;5056601;28;20210;-68
2023/10/21 00:06:25;;;;;;;77.93;26.87;;;8.50;99.90;;;7.61;100.00;98162.88;5056470;28;20280;-69
2023/10/21 00:08:54;;;;;;;80.63;29.17;;;8.60;99.90;;;7.61;100.00;98153.06;5056211;28;20296;-68
2023/10/21 00:11:22;;;;;;;63.13;27.67;;;8.60;99.90;;;7.62;100.00;98156.56;5056494;28;20205;-68
2023/10/21 00:13:51;;;;;;;57.20;25.90;;;8.50;99.90;;;7.63;100.00;98160.84;5056448;28;20249;-68
2023/10/21 00:16:19;;;;;;;68.07;28.90;;;8.60;99.90;;;7.64;100.00;98146.50;5056256;28;20234;-68
2023/10/21 00:18:47;;;;;;;125.67;29.47;;;8.50;99.90;;;7.64;100.00;98165.13;5056367;28;20202;-68
2023/10/21 00:21:16;;;;;;;43.13;26.27;;;8.60;99.90;;;7.65;100.00;98164.94;5056277;28;20292;-68
2023/10/21 00:23:44;;;;;;;54.73;26.77;;;8.60;99.90;;;7.65;100.00;98167.63;5055941;28;20664;-68
2023/10/21 00:26:13;;;;;;;115.17;28.80;;;8.60;99.90;;;7.66;100.00;98171.09;5056131;28;20217;-69
2023/10/21 00:28:41;;;;;;;125.87;30.47;;;8.70;99.90;;;7.67;100.00;98169.25;5056158;28;20210;-69
2023/10/21 00:31:10;;;;;;;85.27;28.17;;;8.60;99.90;;;7.66;100.00;98176.44;5056115;28;20297;-69
2023/10/21 00:33:38;;;;;;;94.70;28.57;;;8.70;99.90;;;7.68;100.00;98178.88;5055761;28;20686;-69
2023/10/21 00:36:06;;;;;;;93.40;28.20;;;8.70;99.90;;;7.68;100.00;98185.03;5055879;28;20240;-69
2023/10/21 00:38:34;;;;;;;44.53;26.00;;;8.60;99.90;;;7.68;100.00;98182.34;5055704;28;20210;-69
2023/10/21 00:41:03;;;;;;;123.27;29.57;;;8.70;99.90;;;7.69;100.00;98188.50;5055632;28;20672;-69
2023/10/21 00:43:38;;;;;;;53.80;27.23;;;8.70;99.90;;;7.70;100.00;98185.66;5055638;28;20305;-69
2023/10/21 00:46:12;;;;;;;79.63;25.80;;;8.60;99.90;;;7.70;100.00;98174.19;5054826;28;20225;-68
2023/10/21 00:48:41;;;;;;;106.50;28.70;;;8.60;99.90;;;7.71;100.00;98184.59;5056354;28;20190;-68
2023/10/21 00:51:10;;;;;;;36.67;25.07;;;8.60;99.90;;;7.72;100.00;98193.41;5055718;28;20210;-69
2023/10/21 00:53:39;;;;;;;34.97;24.37;;;8.80;99.90;;;7.72;100.00;98196.09;5055679;28;20206;-69
2023/10/21 00:56:08;;;;;;;82.43;26.50;;;8.70;99.90;;;7.73;100.00;98206.53;5055530;28;20226;-69
2023/10/21 00:58:38;;;;;;;32.77;23.03;;;8.60;99.90;;;7.73;100.00;98217.19;5055291;28;20241;-69
2023/10/21 01:01:09;;;;;;;56.40;25.60;;;8.80;99.90;;;7.74;100.00;98210.81;5055534;28;20202;-69
2023/10/21 01:03:38;;;;;;;48.03;23.00;;;8.70;99.90;;;7.75;100.00;98222.31;5055513;28;20289;-68
2023/10/21 01:06:07;;;;;;;64.87;25.80;;;8.70;99.90;;;7.74;100.00;98226.00;5055086;28;20777;-69
2023/10/21 01:08:43;;;;;;;34.70;23.33;;;8.70;99.90;;;7.75;100.00;98224.97;5055378;28;20202;-68
2023/10/21 01:11:12;;;;;;;29.27;21.00;;;8.80;99.90;;;7.75;100.00;98227.63;5055337;28;20209;-68
2023/10/21 01:13:43;;;;;;;33.97;22.13;;;8.80;99.90;;;7.76;100.00;98234.59;5055362;28;20206;-68
2023/10/21 01:16:11;;;;;;;61.80;24.73;;;8.80;99.90;;;7.77;100.00;98230.94;5055174;28;20316;-69
2023/10/21 01:18:40;;;;;;;44.33;21.70;;;8.70;99.90;;;7.77;100.00;98229.09;5055253;28;20202;-69
2023/10/21 01:21:09;;;;;;;37.33;23.67;;;8.70;99.90;;;7.77;100.00;98233.59;5055178;28;20213;-69
2023/10/21 01:23:39;;;;;;;66.13;23.43;;;8.70;99.90;;;7.77;100.00;98242.41;5055153;28;20202;-68
2023/10/21 01:26:08;;;;;;;51.50;24.07;;;8.80;99.90;;;7.78;100.00;98237.88;5054995;28;20312;-69
2023/10/21 01:28:36;;;;;;;45.97;22.90;;;8.70;99.90;;;7.78;100.00;98232.56;5055058;28;20229;-68
2023/10/21 01:31:05;;;;;;;30.07;20.33;;;8.70;99.90;;;7.78;100.00;98230.72;5054979;28;20212;-68
2023/10/21 01:33:33;;;;;;;56.00;24.40;;;8.80;99.90;;;7.80;100.00;98241.19;5054942;28;20240;-69
2023/10/21 01:36:02;;;;;;;36.10;22.47;;;8.70;99.90;;;7.79;100.00;98237.69;5054518;28;20670;-68
2023/10/21 01:38:30;;;;;;;31.17;21.90;;;8.80;99.90;;;7.80;100.00;98236.69;5054786;28;20279;-68
2023/10/21 01:40:59;;;;;;;41.63;24.20;;;8.80;99.90;;;7.81;100.00;98238.28;5054801;28;20298;-68
2023/10/21 01:43:27;;;;;;;39.13;23.83;;;8.80;99.90;;;7.82;100.00;98249.78;5054461;28;20241;-69
2023/10/21 01:45:55;;;;;;;40.30;23.43;;;8.80;99.90;;;7.82;100.00;98244.44;5054655;28;20258;-68
2023/10/21 01:48:24;;;;;;;63.53;24.70;;;8.80;99.90;;;7.84;100.00;98245.06;5054344;28;20737;-68
2023/10/21 01:51:01;;;;;;;35.87;21.73;;;8.80;99.90;;;7.83;100.00;98238.94;5054612;28;20233;-69
2023/10/21 01:53:31;;;;;;;28.17;20.67;;;8.80;99.90;;;7.86;100.00;98235.03;5054277;28;20608;-69
2023/10/21 01:56:04;;;;;;;61.53;24.17;;;8.80;99.90;;;7.85;100.00;98231.53;5054189;28;20708;-69
2023/10/21 01:58:33;;;;;;;61.43;23.63;;;8.70;99.90;;;7.84;100.00;98226.44;5054002;28;20322;-68
2023/10/21 02:01:09;;;;;;;71.00;23.47;;;8.80;99.90;;;7.83;100.00;98238.09;5054422;28;20300;-68
2023/10/21 02:03:37;;;;;;;73.17;23.43;;;8.80;99.90;;;7.83;100.00;98246.09;5054426;28;20186;-68
2023/10/21 02:06:07;;;;;;;79.60;23.90;;;8.70;99.90;;;7.83;100.00;98251.41;5053929;28;20664;-69
2023/10/21 02:08:35;;;;;;;68.53;22.93;;;8.70;99.90;;;7.82;100.00;98252.44;5054249;28;20244;-68
2023/10/21 02:11:05;;;;;;;51.23;22.17;;;8.80;99.90;;;7.84;100.00;98259.19;5054266;28;20202;-68
2023/10/21 02:13:33;;;;;;;33.70;21.30;;;8.80;99.90;;;7.84;100.00;98256.53;5054179;28;20612;-68
2023/10/21 02:16:01;;;;;;;53.77;22.37;;;8.90;99.90;;;7.83;100.00;98252.25;5054064;28;20317;-68
2023/10/21 02:18:29;;;;;;;30.93;21.73;;;8.90;99.90;;;7.83;100.00;98248.75;5053967;28;20311;-69
2023/10/21 02:20:57;;;;;;;44.03;21.60;;;8.80;99.90;;;7.82;100.00;98250.59;5053722;28;20737;-69
2023/10/21 02:23:27;;;;;;;52.93;24.17;;;8.90;99.90;;;7.83;100.00;98249.56;5053973;28;20336;-69
2023/10/21 02:26:00;;;;;;;58.53;22.80;;;8.80;99.90;;;7.82;100.00;98255.09;5053864;28;20237;-69
2023/10/21 02:28:30;;;;;;;44.13;23.53;;;8.80;99.90;;;7.84;100.00;98258.41;5053946;28;20276;-69
2023/10/21 02:31:03;;;;;;;76.63;23.67;;;8.90;99.90;;;7.84;100.00;98263.72;5053903;28;20237;-69
2023/10/21 02:33:31;;;;;;;41.93;24.17;;;8.80;99.90;;;7.84;100.00;98269.06;5053845;28;20198;-69
2023/10/21 02:35:59;;;;;;;50.20;22.93;;;8.80;99.90;;;7.86;100.00;98277.66;5053759;28;20312;-69
2023/10/21 02:38:27;;;;;;;32.37;22.30;;;8.80;99.90;;;7.86;100.00;98272.31;5053634;28;20225;-69
2023/10/21 02:40:55;;;;;;;62.93;23.53;;;8.80;99.90;;;7.84;100.00;98269.84;5053689;28;20301;-68
2023/10/21 02:43:24;;;;;;;31.60;22.43;;;8.90;99.90;;;7.86;100.00;98272.31;5053471;28;20305;-69
2023/10/21 02:45:53;;;;;;;58.87;24.03;;;8.80;99.90;;;7.84;100.00;98274.38;5053657;28;20317;-69
2023/10/21 02:48:21;;;;;;;61.33;24.57;;;8.90;99.90;;;7.84;100.00;98269.06;5053617;28;20297;-69
2023/10/21 02:50:49;;;;;;;31.10;21.53;;;8.90;99.90;;;7.85;100.00;98266.16;5053258;28;20206;-69
2023/10/21 02:53:18;;;;;;;58.63;23.33;;;8.80;99.90;;;7.86;100.00;98272.31;5053563;28;20221;-69
2023/10/21 02:55:46;;;;;;;29.70;19.40;;;8.80;99.90;;;7.86;100.00;98264.31;5053507;28;20233;-69
2023/10/21 02:58:14;;;;;;;36.77;21.57;;;8.90;99.90;;;7.87;100.00;98273.97;5053130;28;20703;-69
2023/10/21 03:00:42;;;;;;;55.50;23.47;;;8.80;99.90;;;7.88;100.00;98270.25;5053426;28;20296;-69
2023/10/21 03:03:12;;;;;;;58.90;23.50;;;8.90;99.90;;;7.86;100.00;98273.16;5053099;28;20771;-69
2023/10/21 03:05:40;;;;;;;32.40;21.67;;;8.80;99.90;;;7.89;100.00;98282.56;5053024;28;20712;-69
2023/10/21 03:08:09;;;;;;;33.47;22.47;;;8.80;99.90;;;7.90;100.00;98284.22;5053353;28;20199;-69
2023/10/21 03:10:37;;;;;;;31.73;20.63;;;8.80;99.90;;;7.90;100.00;98281.56;5052843;28;20259;-69
2023/10/21 03:13:06;;;;;;;42.63;23.73;;;8.80;99.90;;;7.89;100.00;98277.25;5053347;28;20241;-69
2023/10/21 03:15:34;;;;;;;64.07;22.47;;;8.80;99.90;;;7.89;100.00;98279.91;5053250;28;20222;-69
2023/10/21 03:18:03;;;;;;;31.27;22.33;;;8.80;99.90;;;7.90;100.00;98284.22;5053261;28;20244;-69
2023/10/21 03:20:34;;;;;;;38.17;23.23;;;8.80;99.90;;;7.92;100.00;98287.47;5053290;28;20267;-69
2023/10/21 03:23:03;;;;;;;40.10;22.57;;;8.90;99.90;;;7.92;100.00;98288.31;5053335;28;20233;-69
2023/10/21 03:25:33;;;;;;;29.90;22.87;;;8.90;99.90;;;7.95;100.00;98287.06;5053123;28;20232;-69
2023/10/21 03:28:01;;;;;;;32.33;23.10;;;8.90;99.90;;;7.95;100.00;98287.91;5053197;28;20255;-68
2023/10/21 03:30:30;;;;;;;28.67;20.80;;;8.90;99.90;;;7.97;100.00;98282.38;5052899;28;20694;-68
2023/10/21 03:32:58;;;;;;;29.43;22.37;;;8.90;99.90;;;7.99;100.00;98288.31;5052873;28;20668;-68
2023/10/21 03:35:26;;;;;;;30.00;23.20;;;8.90;99.90;;;7.98;100.00;98284.81;5053099;28;20265;-69
2023/10/21 03:37:56;;;;;;;23.93;19.83;;;8.90;99.90;;;8.00;100.00;98289.97;5053057;28;20226;-69
2023/10/21 03:40:24;;;;;;;29.17;21.43;;;9.00;99.90;;;8.00;100.00;98305.94;5052790;28;20549;-69
2023/10/21 03:42:52;;;;;;;24.87;19.93;;;9.00;99.90;;;8.03;100.00;98289.56;5052973;28;20290;-69
2023/10/21 03:45:20;;;;;;;30.90;23.17;;;9.00;99.90;;;8.04;100.00;98285.88;5053011;28;20257;-69
2023/10/21 03:47:49;;;;;;;28.53;21.83;;;8.90;99.90;;;8.05;100.00;98282.16;5053013;28;20290;-69
2023/10/21 03:50:17;;;;;;;32.83;23.80;;;9.00;99.90;;;8.05;100.00;98290.16;5052690;28;20676;-68
2023/10/21 03:52:45;;;;;;;26.70;20.77;;;9.10;99.90;;;8.05;100.00;98283.00;5052984;28;20238;-68
2023/10/21 03:55:15;;;;;;;32.70;22.53;;;9.10;99.90;;;8.06;100.00;98286.47;5052589;28;20312;-69
2023/10/21 03:57:43;;;;;;;27.97;21.97;;;8.90;99.90;;;8.08;100.00;98282.59;5052855;28;22118;-68
2023/10/21 04:00:12;;;;;;;28.70;22.03;;;9.10;99.90;;;8.10;100.00;98274.41;5052894;28;20210;-68
2023/10/21 04:02:41;;;;;;;28.87;21.40;;;9.00;99.90;;;8.11;100.00;98281.38;5052863;28;20206;-69
2023/10/21 04:05:09;;;;;;;25.20;20.23;;;9.00;99.90;;;8.11;100.00;98282.19;5052806;28;20233;-69
2023/10/21 04:07:37;;;;;;;29.30;21.10;;;9.10;99.90;;;8.12;100.00;98280.31;5052811;28;20234;-69
2023/10/21 04:10:08;;;;;;;25.50;21.13;;;9.10;99.90;;;8.14;100.00;98286.28;5052859;28;20216;-68
2023/10/21 04:12:40;;;;;;;26.00;20.47;;;9.00;99.90;;;8.14;100.00;98276.47;5052817;28;20190;-68
2023/10/21 04:15:09;;;;;;;24.03;19.43;;;9.10;99.90;;;8.14;100.00;98281.78;5052706;28;20321;-68
2023/10/21 04:17:39;;;;;;;25.73;20.93;;;9.10;99.90;;;8.17;100.00;98285.88;5052644;28;20214;-68
2023/10/21 04:20:08;;;;;;;24.60;19.60;;;9.10;99.90;;;8.18;100.00;98284.03;5052409;28;20206;-68
2023/10/21 04:22:37;;;;;;;23.53;19.63;;;9.10;99.90;;;8.18;100.00;98288.31;5055511;28;20213;-68
2023/10/21 04:25:08;;;;;;;24.87;20.37;;;9.20;99.90;;;8.18;100.00;98292.88;5055941;28;20225;-69
2023/10/21 04:27:36;;;;;;;19.87;16.67;;;9.10;99.90;;;8.20;100.00;98290.81;5056260;28;20377;-69
2023/10/21 04:30:08;;;;;;;26.63;20.37;;;9.20;99.90;;;8.22;100.00;98285.28;5056334;28;20236;-69
2023/10/21 04:32:37;;;;;;;24.17;19.47;;;9.10;99.90;;;8.23;100.00;98287.72;5056161;28;20194;-68
2023/10/21 04:35:06;;;;;;;19.73;17.13;;;9.10;99.90;;;8.24;100.00;98288.53;5056053;28;20287;-69
2023/10/21 04:37:34;;;;;;;19.50;16.73;;;9.10;99.90;;;8.25;100.00;98285.69;5055701;28;20620;-69
2023/10/21 04:40:03;;;;;;;25.43;19.33;;;9.20;99.90;;;8.27;100.00;98288.97;5055967;28;20639;-68
2023/10/21 04:42:31;;;;;;;21.60;18.60;;;9.30;99.90;;;8.28;100.00;98289.78;5055958;28;20245;-68
2023/10/21 04:44:59;;;;;;;21.30;17.63;;;9.20;99.90;;;8.29;100.00;98294.91;5055394;28;20317;-69
2023/10/21 04:47:29;;;;;;;23.80;19.60;;;9.30;99.90;;;8.29;100.00;98297.59;5055852;28;20268;-68
2023/10/21 04:49:57;;;;;;;23.67;19.03;;;9.30;99.90;;;8.31;100.00;98298.22;5055774;28;20209;-68
2023/10/21 04:52:25;;;;;;;20.67;17.37;;;9.30;99.90;;;8.31;100.00;98290.22;5055777;28;20206;-68
2023/10/21 04:54:53;;;;;;;23.57;18.97;;;9.30;99.90;;;8.34;100.00;98302.31;5055342;28;20700;-69
2023/10/21 04:57:21;;;;;;;22.70;18.17;;;9.30;99.90;;;8.34;100.00;98308.47;5055718;28;20209;-68
2023/10/21 04:59:49;;;;;;;20.20;16.50;;;9.30;99.90;;;8.35;100.00;98304.78;5055518;28;20237;-68
2023/10/21 05:02:18;;;;;;;27.57;20.50;;;9.20;99.90;;;8.37;100.00;98304.56;5055577;28;20206;-69
2023/10/21 05:04:47;;;;;;;24.73;19.97;;;9.40;99.90;;;8.38;100.00;98298.22;5055437;28;20276;-69
2023/10/21 05:07:15;;;;;;;28.03;21.47;;;9.30;99.90;;;8.38;100.00;98307.03;5055490;28;20293;-69
2023/10/21 05:09:43;;;;;;;23.93;19.40;;;9.40;99.90;;;8.39;100.00;98306.00;5055428;28;20293;-69
2023/10/21 05:12:12;;;;;;;28.53;22.27;;;9.40;99.90;;;8.40;100.00;98302.31;5055387;28;20210;-69
2023/10/21 05:14:40;;;;;;;28.57;20.93;;;9.40;99.90;;;8.41;100.00;98311.97;5055294;28;20225;-69
2023/10/21 05:17:08;;;;;;;28.20;21.43;;;9.40;99.90;;;8.41;100.00;98311.97;5055304;28;20300;-68
2023/10/21 05:19:36;;;;;;;29.33;22.67;;;9.40;99.90;;;8.43;100.00;98328.56;5055162;28;20279;-68
2023/10/21 05:22:06;;;;;;;29.50;22.17;;;9.40;99.90;;;8.44;100.00;98324.88;5055210;28;20292;-68
2023/10/21 05:24:34;;;;;;;23.93;19.73;;;9.50;99.90;;;8.44;100.00;98324.06;5055120;28;20241;-69
2023/10/21 05:27:03;;;;;;;22.67;19.17;;;9.40;99.90;;;8.46;100.00;98327.34;5055130;28;20227;-69
2023/10/21 05:29:31;;;;;;;24.37;19.10;;;9.30;99.90;;;8.46;100.00;98338.81;5055179;28;20205;-68
2023/10/21 05:32:00;;;;;;;28.63;22.33;;;9.50;99.90;;;8.47;100.00;98343.13;5054296;28;20305;-69
2023/10/21 05:34:29;;;;;;;24.27;19.17;;;9.40;99.90;;;8.47;100.00;98340.47;5054634;28;20300;-68
2023/10/21 05:36:57;;;;;;;29.90;22.37;;;9.40;99.90;;;8.50;100.00;98360.56;5054954;28;20256;-68
2023/10/21 05:39:27;;;;;;;30.53;22.97;;;9.40;99.90;;;8.52;100.00;98358.53;5054527;28;20802;-68
2023/10/21 05:41:55;;;;;;;27.83;20.67;;;9.50;99.90;;;8.52;100.00;98362.00;5054827;28;20256;-68
2023/10/21 05:44:23;;;;;;;29.67;22.37;;;9.50;99.90;;;8.54;100.00;98359.13;5054383;28;20214;-69
2023/10/21 05:47:11;;;;;;;28.57;21.67;;;9.50;99.90;;;8.55;100.00;98356.28;5055189;28;20202;-68
2023/10/21 05:49:39;;;;;;;32.63;23.73;;;9.50;99.90;;;8.57;100.00;98367.53;5054375;28;20301;-69
2023/10/21 05:52:07;;;;;;;30.90;22.33;;;9.60;99.90;;;8.59;100.00;98370.00;5054308;28;20766;-68
2023/10/21 05:54:37;;;;;;;30.93;21.77;;;9.60;99.90;;;8.60;100.00;98376.97;5054221;28;20209;-69
2023/10/21 05:57:06;;;;;;;33.40;23.30;;;9.60;99.90;;;8.60;100.00;98383.13;5054620;28;20214;-69
2023/10/21 05:59:34;;;;;;;28.13;20.53;;;9.60;99.90;;;8.61;100.00;98386.63;5054408;28;20237;-69
2023/10/21 06:02:02;;;;;;;32.40;23.07;;;9.60;99.90;;;8.63;100.00;98393.38;5054117;28;20664;-69
2023/10/21 06:04:31;;;;;;;33.53;23.40;;;9.50;99.90;;;8.65;100.00;98401.19;5054314;28;20234;-69
2023/10/21 06:07:00;;;;;;;32.97;22.57;;;9.70;99.90;;;8.65;100.00;98394.03;5054331;28;20252;-68
2023/10/21 06:09:28;;;;;;;35.17;24.00;;;9.70;99.90;;;8.69;100.00;98404.28;5054281;28;20251;-68
2023/10/21 06:11:58;;;;;;;34.03;23.97;;;9.70;99.90;;;8.69;100.00;98399.75;5054231;28;20214;-68
2023/10/21 06:14:26;;;;;;;34.03;23.70;;;9.70;99.90;;;8.70;100.00;98403.25;5054100;28;20202;-69
2023/10/21 06:16:54;;;;;;;30.73;22.77;;;9.70;99.90;;;8.71;100.00;98405.69;5053861;28;20696;-68
2023/10/21 06:19:22;;;;;;;32.83;24.20;;;9.70;99.90;;;8.74;100.00;98409.81;5054013;28;20268;-68
2023/10/21 06:21:50;;;;;;;29.80;22.73;;;9.70;99.90;;;8.75;100.00;98416.78;5054040;28;20237;-68
2023/10/21 06:24:19;;;;;;;28.60;22.00;;;9.70;99.90;;;8.76;100.00;98415.78;5053634;28;20664;-69
2023/10/21 06:26:47;;;;;;;27.27;20.73;;;9.70;99.90;;;8.77;100.00;98420.88;5053994;28;20206;-68
2023/10/21 06:29:16;;;;;;;25.70;20.73;;;9.70;99.90;;;8.79;100.00;98431.38;5053981;28;20198;-68
2023/10/21 06:31:44;;;;;;;24.63;19.53;;;9.70;99.90;;;8.77;100.00;98431.56;5053586;28;20746;-68
2023/10/21 06:34:13;;;;;;;32.90;23.27;;;9.70;99.90;;;8.80;100.00;98430.34;5053509;28;20690;-68
2023/10/21 06:36:41;;;;;;;26.17;19.57;;;9.70;99.90;;;8.80;100.00;98441.03;5053852;28;20356;-69
2023/10/21 06:39:09;;;;;;;30.77;22.47;;;9.80;99.90;;;8.81;100.00;98438.13;5053708;28;20216;-68
2023/10/21 06:41:37;;;;;;;34.20;23.30;;;9.80;99.90;;;8.84;100.00;98442.22;5053450;28;20676;-69
2023/10/21 06:44:06;;;;;;;34.10;23.97;;;9.80;99.90;;;8.85;100.00;98449.22;5052750;28;20287;-68
2023/10/21 06:46:35;;;;;;;36.87;25.03;;;9.70;99.90;;;8.88;100.00;98459.47;5053270;28;20261;-68
2023/10/21 06:49:04;;;;;;;29.03;22.33;;;9.90;99.90;;;8.88;100.00;98459.47;5053291;28;20202;-69
2023/10/21 06:51:32;;;;;;;26.40;20.77;;;9.80;99.90;;;8.89;100.00;98461.94;5053300;28;20731;-68
2023/10/21 06:54:00;;;;;;;33.43;24.17;;;9.80;99.90;;;8.94;100.00;98463.97;5053280;28;20703;-68
2023/10/21 06:56:28;;;;;;;30.63;21.13;;;9.90;99.90;;;8.94;100.00;98469.31;5053513;28;20222;-68
2023/10/21 06:58:57;;;;;;;32.13;23.67;;;9.90;99.90;;;8.97;100.00;98479.63;5053182;28;20685;-68
2023/10/21 07:01:25;;;;;;;27.93;21.70;;;9.90;99.90;;;8.99;100.00;98472.22;5053407;28;20340;-68
2023/10/21 07:03:55;;;;;;;27.93;21.53;;;9.90;99.90;;;8.99;100.00;98470.38;5053426;28;20206;-69
2023/10/21 07:06:23;;;;;;;36.07;24.10;;;10.00;99.90;;;9.02;100.00;98483.31;5053028;28;20634;-68
2023/10/21 07:08:51;;;;;;;29.27;22.17;;;10.00;99.90;;;9.03;100.00;98486.78;5053380;28;20225;-69
2023/10/21 07:11:20;;;;;;;34.73;24.97;;;10.10;99.90;;;9.05;100.00;98490.91;5053367;28;20202;-68
2023/10/21 07:13:48;;;;;;;25.27;19.90;;;10.00;99.90;;;9.06;100.00;98491.72;5053343;28;20285;-68
2023/10/21 07:16:16;;;;;;;22.77;19.13;;;10.00;99.90;;;9.08;100.00;98495.00;5053360;28;20232;-68
2023/10/21 07:18:45;;;;;;;28.93;21.77;;;10.10;99.90;;;9.10;100.00;98499.13;5052990;28;20669;-68
2023/10/21 07:21:14;;;;;;;27.63;22.13;;;10.20;99.90;;;9.11;100.00;98498.06;5053267;28;20222;-68
2023/10/21 07:23:42;;;;;;;31.07;23.50;;;10.10;99.90;;;9.14;100.00;98507.53;5053278;28;20205;-68
2023/10/21 07:26:10;;;;;;;35.20;25.00;;;10.10;99.90;;;9.15;100.00;98515.34;5053224;28;20257;-68
2023/10/21 07:28:39;;;;;;;31.63;23.97;;;10.20;99.90;;;9.18;100.00;98519.44;5052957;28;20213;-68
2023/10/21 07:31:07;;;;;;;31.60;24.50;;;10.10;99.90;;;9.18;100.00;98518.63;5053221;28;20240;-68
2023/10/21 07:33:35;;;;;;;29.00;21.60;;;10.20;99.90;;;9.21;100.00;98528.91;5052892;28;20682;-68
2023/10/21 07:36:05;;;;;;;34.03;24.43;;;10.20;99.90;;;9.25;100.00;98528.25;5053069;28;20316;-68
2023/10/21 07:38:35;;;;;;;33.83;24.93;;;10.20;99.90;;;9.28;100.00;98530.53;5053415;28;20198;-68
2023/10/21 07:41:11;;;;;;;30.13;23.20;;;10.20;99.90;;;9.28;100.00;98535.84;5053046;28;20240;-68
2023/10/21 07:43:39;;;;;;;30.27;22.00;;;10.40;99.90;;;9.30;100.00;98538.34;5052889;28;20213;-68
2023/10/21 07:46:07;;;;;;;34.47;24.00;;;10.20;99.90;;;9.32;100.00;98542.44;5052613;28;20723;-68
2023/10/21 07:48:35;;;;;;;28.27;22.17;;;10.50;99.90;;;9.33;100.00;98546.75;5052688;28;20202;-68
2023/10/21 07:51:04;;;;;;;25.93;21.53;;;10.30;99.90;;;9.34;100.00;98553.75;5052999;28;20198;-68
2023/10/21 07:53:34;;;;;;;29.17;20.73;;;10.30;99.90;;;9.38;100.00;98562.19;5053028;28;20625;-68
2023/10/21 07:56:02;;;;;;;27.60;21.33;;;10.40;99.90;;;9.39;100.00;98569.97;5055116;28;20291;-68
2023/10/21 07:58:30;;;;;;;25.00;20.67;;;10.40;99.90;;;9.43;100.00;98581.06;5056804;28;20213;-68
2023/10/21 08:01:00;;;;;;;27.27;20.67;;;10.30;99.90;;;9.45;100.00;98585.16;5056733;28;20336;-68
2023/10/21 08:03:28;;;;;;;24.77;20.50;;;10.40;99.90;;;9.47;100.00;98583.13;5056693;28;20241;-68
2023/10/21 08:05:56;;;;;;;26.60;20.77;;;10.50;99.90;;;9.49;100.00;98601.59;5056279;28;20226;-69
2023/10/21 08:08:25;;;;;;;26.07;20.63;;;10.40;99.90;;;9.50;100.00;98611.25;5056552;28;20202;-69
2023/10/21 08:11:01;;;;;;;25.07;20.07;;;10.40;99.90;;;9.51;100.00;98611.06;5056806;28;20695;-68
2023/10/21 08:13:29;;;;;;;29.20;21.97;;;10.40;99.90;;;9.54;100.00;98621.34;5056337;28;20190;-68
2023/10/21 08:15:57;;;;;;;26.73;22.13;;;10.60;99.90;;;9.56;100.00;98624.63;5056129;28;20596;-68
2023/10/21 08:18:26;;;;;;;25.57;20.80;;;10.40;99.90;;;9.58;100.00;98632.44;5056113;28;20217;-68
2023/10/21 08:20:55;;;;;;;27.53;21.13;;;10.60;99.90;;;9.60;100.00;98636.56;5056014;28;20790;-68
2023/10/21 08:23:23;;;;;;;25.07;19.33;;;10.50;99.90;;;9.63;100.00;98643.31;5056043;28;20210;-68
2023/10/21 08:25:51;;;;;;;25.57;20.63;;;10.50;99.90;;;9.65;100.00;98644.78;5056256;28;20230;-68
2023/10/21 08:28:21;;;;;;;24.23;19.67;;;10.70;99.90;;;9.69;100.00;98653.22;5056288;28;20296;-68
2023/10/21 08:30:49;;;;;;;26.90;21.27;;;10.70;99.90;;;9.72;100.00;98655.47;5056211;28;20225;-68
2023/10/21 08:33:18;;;;;;;27.53;21.17;;;10.70;99.90;;;9.73;100.00;98661.59;5056126;28;20292;-68
2023/10/21 08:35:47;;;;;;;23.37;19.30;;;10.60;99.90;;;9.75;100.00;98664.91;5055734;28;20280;-68
2023/10/21 08:38:15;;;;;;;23.80;20.10;;;10.70;99.90;;;9.77;100.00;98668.19;5055784;28;20699;-68
2023/10/21 08:40:46;;;;;;;25.87;21.20;;;10.80;99.90;;;9.79;100.00;98683.03;5055611;28;20230;-68
2023/10/21 08:43:18;;;;;;;27.93;22.20;;;10.70;99.90;;;9.82;100.00;98687.94;5055844;28;20301;-68
2023/10/21 08:45:49;;;;;;;28.67;21.67;;;10.70;99.90;;;9.86;100.00;98688.38;5055538;28;20601;-68
2023/10/21 08:48:18;;;;;;;35.60;24.63;;;10.80;99.90;;;9.91;100.00;98692.06;5055848;28;20194;-68
2023/10/21 08:50:49;;;;;;;32.17;22.07;;;10.90;99.90;;;9.98;100.00;98697.41;5055501;28;20579;-68
2023/10/21 08:53:17;;;;;;;36.13;24.93;;;11.00;99.90;;;10.06;100.00;98710.56;5055823;28;20220;-69
2023/10/21 08:55:47;;;;;;;34.40;26.13;;;11.00;99.90;;;10.13;100.00;98706.03;5055530;28;20230;-68
2023/10/21 08:58:15;;;;;;;35.73;26.07;;;11.00;99.90;;;10.16;100.00;98711.00;5055660;28;20209;-68
2023/10/21 09:00:44;;;;;;;33.20;24.10;;;11.20;99.90;;;10.26;100.00;98724.78;5055567;28;20226;-69
2023/10/21 09:03:14;;;;;;;35.73;24.70;;;11.10;99.90;;;10.33;100.00;98725.59;5055600;28;20206;-69
2023/10/21 09:06:10;;;;;;;35.80;24.50;;;11.30;99.90;;;10.44;100.00;98732.16;5055511;28;20230;-69
2023/10/21 09:08:41;;;;;;;30.37;21.47;;;11.30;99.90;;;10.57;100.00;98748.19;5054876;28;20191;-69
2023/10/21 09:11:13;;;;;;;27.53;19.90;;;11.50;99.90;;;10.61;100.00;98747.59;5055480;28;20191;-69
2023/10/21 09:13:43;;;;;;;23.20;17.27;;;11.60;99.90;;;10.67;100.00;98746.75;5055459;28;20194;-69
2023/10/21 09:16:30;;;;;;;22.03;16.73;;;11.70;99.90;;;10.77;100.00;98757.00;5055360;28;20257;-69
2023/10/21 09:19:03;;;;;;;20.60;15.33;;;11.60;99.90;;;10.88;100.00;98768.94;5055346;28;20201;-69
2023/10/21 09:21:34;;;;;;;18.27;14.13;;;11.80;99.90;;;10.92;100.00;98767.47;5055031;28;20698;-68
2023/10/21 09:24:04;;;;;;;16.90;13.30;;;11.90;99.90;;;10.99;100.00;98782.47;5055279;28;20201;-68
2023/10/21 09:26:36;;;;;;;12.67;10.77;;;11.90;99.90;;;11.12;100.00;98787.81;5055076;28;20225;-68
2023/10/21 09:29:10;;;;;;;13.23;10.27;;;12.00;99.90;;;11.19;100.00;98798.50;5054822;28;20558;-68
2023/10/21 09:31:48;;;;;;;12.30;10.63;;;12.10;99.90;;;11.44;100.00;98802.09;5054701;28;20586;-68
2023/10/21 09:34:29;;;;;;;13.33;10.43;;;12.40;99.90;;;11.54;100.00;98799.78;5055053;28;20221;-68
2023/10/21 09:37:01;;;;;;;11.80;10.13;;;12.60;99.90;;;11.68;100.00;98811.25;5055018;28;20190;-68
2023/10/21 09:39:33;;;;;;;8.50;7.40;;;12.60;99.90;;;11.88;100.00;98827.28;5054971;28;20190;-68
2023/10/21 09:42:04;;;;;;;6.97;6.27;;;12.80;99.90;;;12.03;100.00;98819.75;5054858;28;20214;-68
2023/10/21 09:44:34;;;;;;;9.30;5.63;;;13.00;99.90;;;12.09;100.00;98818.88;5054315;28;20217;-68
2023/10/21 09:47:07;;;;;;;5.57;5.00;;;13.10;99.90;;;12.12;100.00;98827.31;5054458;28;20582;-68
2023/10/21 09:49:38;;;;;;;4.77;4.27;;;13.10;99.90;;;12.20;100.00;98823.56;5054767;28;20191;-68
2023/10/21 09:52:09;;;;;;;6.17;4.30;;;13.20;99.90;;;12.18;100.00;98826.47;5054675;28;20272;-68
2023/10/21 09:54:43;;;;;;;4.93;3.50;;;;;;;12.43;100.00;98831.06;5054586;28;20240;-68
2023/10/21 09:57:13;;;;;;;5.93;3.47;;;;;;;12.47;100.00;98830.38;5054634;28;20190;-68
2023/10/21 09:59:44;;;;;;;3.20;2.90;;;;;;;12.55;100.00;98843.53;5054562;28;20636;-68
2023/10/21 10:02:15;;;;;;;4.30;2.60;;;;;;;12.67;100.00;98843.66;5054475;28;20206;-68
2023/10/21 10:04:46;;;;;;;3.97;2.80;;;;;;;12.78;100.00;98848.28;5054410;28;20313;-68
2023/10/21 10:07:18;;;;;;;4.67;3.47;;;13.60;99.90;;;12.91;100.00;98850.84;5054525;28;20631;-68
2023/10/21 10:10:03;;;;;;;5.43;3.00;;;13.70;99.90;;;13.04;100.00;98863.34;5054386;28;20186;-68
2023/10/21 10:12:37;;;;;;;6.73;3.13;;;13.80;99.90;;;12.98;100.00;98865.03;5054330;28;20214;-68
2023/10/21 10:15:29;;;;;;;3.50;2.80;;;13.80;99.90;;;12.95;100.00;98860.09;5055093;28;20285;-69
2023/10/21 10:17:58;;;;;;;2.90;2.60;;;13.70;99.90;;;13.00;100.00;98864.81;5054245;28;20197;-68
2023/10/21 10:20:28;;;;;;;3.80;3.07;;;13.80;99.90;;;12.95;100.00;98876.22;5054115;28;20293;-68
2023/10/21 10:22:59;;;;;;;4.30;2.93;;;13.70;99.90;;;13.13;100.00;98878.16;5054078;28;20217;-68